Bayside Park, Mississippi
Current Conditions -  °F | °C
As of 7:53 PM on Friday 24 Oct 2014 (Local Time) from KASD Reporting Station
Clear Clear  
Wind Chill: 58°   Ceiling: Unl
Heat Index: 58°   Visibility: 10mi
Dew Point: 53°   Wind: 3mph
Humidity: 84%   Direction: 360°N
Pressure: 30.07"   Gusts: NA
Location:  30.3134°N, 89.5231°W
Report Text: KASD 250053Z AUTO 36003KT 10SM CLR 14/12 A3007 RMK AO2 SLP183 T01440117
Loading
Personal Weather Stations






























Interactive Weather Map
Tropical Storm Tracking
New forecast layout! Learn more

10-Day Weather Forecast

Advertisements
Track Severe Weather on mobile